createdAt,value
2018-09-09T00:00:59.260Z,85.16
2018-09-09T00:01:59.034Z,85.08
2018-09-09T00:02:58.994Z,85.05
2018-09-09T00:03:59.047Z,85.03
2018-09-09T00:04:59.056Z,85.03
2018-09-09T00:05:58.991Z,84.95
2018-09-09T00:06:58.972Z,84.81
2018-09-09T00:07:58.977Z,84.55
2018-09-09T00:08:59.094Z,84.50
2018-09-09T00:09:59.109Z,84.34
2018-09-09T00:10:59.011Z,84.55
2018-09-09T00:11:58.978Z,84.87
2018-09-09T00:12:58.974Z,84.95
2018-09-09T00:13:59.250Z,84.87
2018-09-09T00:14:59.072Z,84.92
2018-09-09T00:15:58.993Z,84.81
2018-09-09T00:16:59.110Z,84.92
2018-09-09T00:17:59.042Z,85.08
2018-09-09T00:18:59.040Z,85.27
2018-09-09T00:19:59.120Z,85.27
2018-09-09T00:20:59.126Z,85.38
2018-09-09T00:21:59.122Z,85.77
2018-09-09T00:22:59.053Z,85.96
2018-09-09T00:23:59.120Z,86.22
2018-09-09T00:24:59.123Z,86.57
2018-09-09T00:25:59.124Z,86.63
2018-09-09T00:26:59.122Z,86.65
2018-09-09T00:27:59.120Z,86.76
2018-09-09T00:28:59.117Z,86.79
2018-09-09T00:29:59.009Z,86.87
2018-09-09T00:30:59.034Z,86.91
2018-09-09T00:31:59.009Z,86.91
2018-09-09T00:32:59.127Z,86.91
2018-09-09T00:33:59.130Z,86.89
2018-09-09T00:34:59.029Z,87.13
2018-09-09T00:35:59.077Z,87.16
2018-09-09T00:36:59.125Z,87.16
2018-09-09T00:37:59.133Z,87.10
2018-09-09T00:38:59.061Z,87.24
2018-09-09T00:39:59.066Z,87.18
2018-09-09T00:40:59.135Z,87.05
2018-09-09T00:41:59.077Z,86.94
2018-09-09T00:42:59.135Z,87.13
2018-09-09T00:43:59.064Z,87.40
2018-09-09T00:44:59.137Z,87.53
2018-09-09T00:45:59.139Z,87.26
2018-09-09T00:46:59.140Z,87.29
2018-09-09T00:47:59.129Z,87.43
2018-09-09T00:48:59.124Z,87.82
2018-09-09T00:49:59.041Z,87.80
2018-09-09T00:50:59.132Z,87.85
2018-09-09T00:51:59.109Z,88.09
2018-09-09T00:52:59.018Z,88.50
2018-09-09T00:53:59.043Z,88.54
2018-09-09T00:54:59.066Z,88.50
2018-09-09T00:55:59.135Z,88.57
2018-09-09T00:56:59.135Z,88.52
2018-09-09T00:57:59.147Z,88.52
2018-09-09T00:58:59.100Z,88.39
2018-09-09T00:59:59.149Z,88.36
2018-09-09T01:00:59.148Z,88.44
2018-09-09T01:01:59.082Z,88.33
2018-09-09T01:02:59.077Z,88.62
2018-09-09T01:03:59.150Z,88.68
2018-09-09T01:04:59.152Z,88.46
2018-09-09T01:05:59.078Z,88.07
2018-09-09T01:06:59.157Z,87.82
2018-09-09T01:07:59.082Z,87.69
2018-09-09T01:08:59.101Z,87.88
2018-09-09T01:09:59.153Z,88.04
2018-09-09T01:10:59.085Z,88.23
2018-09-09T01:11:59.088Z,88.09
2018-09-09T01:12:59.095Z,88.01
2018-09-09T01:13:59.158Z,88.04
2018-09-09T01:14:59.158Z,88.01
2018-09-09T01:15:59.088Z,88.07
2018-09-09T01:16:59.164Z,87.96
2018-09-09T01:17:59.029Z,88.04
2018-09-09T01:18:59.098Z,88.12
2018-09-09T01:19:59.147Z,88.04
2018-09-09T01:20:59.087Z,87.85
2018-09-09T01:21:59.146Z,87.45
2018-09-09T01:22:59.084Z,87.10
2018-09-09T01:23:59.126Z,86.94
2018-09-09T01:24:59.063Z,86.97
2018-09-09T01:25:59.149Z,87.40
2018-09-09T01:26:59.150Z,87.51
2018-09-09T01:27:59.159Z,87.67
2018-09-09T01:28:59.094Z,87.93
2018-09-09T01:29:59.105Z,87.82
2018-09-09T01:30:59.154Z,87.77
2018-09-09T01:31:59.025Z,87.85
2018-09-09T01:32:59.073Z,87.80
2018-09-09T01:33:59.155Z,87.59
2018-09-09T01:34:59.036Z,87.67
2018-09-09T01:35:59.158Z,87.67
2018-09-09T01:36:59.158Z,87.69
2018-09-09T01:37:59.175Z,87.88
2018-09-09T01:38:59.138Z,87.96
2018-09-09T01:39:59.176Z,88.01
2018-09-09T01:40:59.119Z,88.12
2018-09-09T01:41:59.340Z,88.31
2018-09-09T01:42:59.177Z,88.46
2018-09-09T01:43:59.179Z,88.57
2018-09-09T01:44:59.192Z,88.46
2018-09-09T01:45:59.182Z,88.68
2018-09-09T01:46:59.182Z,89.08
2018-09-09T01:47:59.180Z,89.27
2018-09-09T01:48:59.187Z,89.37
2018-09-09T01:49:59.141Z,89.59
2018-09-09T01:50:59.204Z,89.72
2018-09-09T01:51:59.207Z,89.80
2018-09-09T01:52:59.184Z,89.78
2018-09-09T01:53:59.187Z,89.78
2018-09-09T01:54:59.066Z,90.18
2018-09-09T01:55:59.113Z,90.34
2018-09-09T01:56:59.118Z,90.34
2018-09-09T01:57:59.199Z,90.20
2018-09-09T01:58:59.088Z,90.13
2018-09-09T01:59:59.092Z,90.20
2018-09-09T02:00:59.091Z,90.18
2018-09-09T02:01:59.040Z,90.15
2018-09-09T02:02:59.086Z,89.99
2018-09-09T02:03:59.138Z,89.80
2018-09-09T02:04:59.138Z,89.51
2018-09-09T02:05:59.042Z,89.29
2018-09-09T02:06:59.047Z,89.11
2018-09-09T02:07:59.147Z,88.89
2018-09-09T02:08:59.125Z,88.79
2018-09-09T02:09:59.143Z,88.68
2018-09-09T02:10:59.181Z,88.50
2018-09-09T02:11:59.226Z,88.36
2018-09-09T02:12:59.128Z,88.09
2018-09-09T02:13:59.102Z,87.88
2018-09-09T02:14:59.087Z,87.69
2018-09-09T02:15:59.131Z,87.72
2018-09-09T02:16:59.139Z,87.53
2018-09-09T02:17:59.132Z,87.10
2018-09-09T02:18:59.136Z,86.91
2018-09-09T02:19:59.139Z,86.97
2018-09-09T02:20:59.203Z,87.02
2018-09-09T02:21:59.206Z,86.91
2018-09-09T02:22:59.134Z,86.81
2018-09-09T02:23:59.162Z,86.76
2018-09-09T02:24:59.177Z,86.60
2018-09-09T02:25:59.296Z,86.46
2018-09-09T02:26:59.157Z,86.44
2018-09-09T02:27:59.209Z,86.46
2018-09-09T02:28:59.212Z,86.57
2018-09-09T02:29:59.215Z,86.46
2018-09-09T02:30:59.144Z,86.38
2018-09-09T02:31:59.138Z,86.30
2018-09-09T02:32:59.218Z,86.22
2018-09-09T02:33:59.215Z,86.07
2018-09-09T02:34:59.214Z,86.04
2018-09-09T02:35:59.142Z,86.01
2018-09-09T02:36:59.215Z,86.04
2018-09-09T02:37:59.145Z,86.15
2018-09-09T02:38:59.152Z,86.20
2018-09-09T02:39:59.223Z,86.33
2018-09-09T02:40:59.288Z,86.44
2018-09-09T02:41:59.226Z,86.49
2018-09-09T02:42:59.166Z,86.73
2018-09-09T02:43:59.220Z,86.89
2018-09-09T02:44:59.221Z,87.02
2018-09-09T02:45:59.155Z,87.13
2018-09-09T02:46:59.307Z,87.32
2018-09-09T02:47:59.222Z,87.48
2018-09-09T02:48:59.159Z,87.64
2018-09-09T02:49:59.148Z,87.72
2018-09-09T02:50:59.227Z,87.90
2018-09-09T02:51:59.288Z,88.04
2018-09-09T02:52:59.154Z,88.20
2018-09-09T02:53:59.162Z,88.31
2018-09-09T02:54:59.188Z,88.39
2018-09-09T02:55:59.228Z,88.54
2018-09-09T02:56:59.166Z,88.76
2018-09-09T02:57:59.179Z,88.92
2018-09-09T02:58:59.179Z,89.08
2018-09-09T02:59:59.180Z,89.11
2018-09-09T03:00:59.128Z,89.19
2018-09-09T03:01:59.134Z,89.32
2018-09-09T03:02:59.178Z,89.45
2018-09-09T03:03:59.091Z,89.62
2018-09-09T03:04:59.126Z,89.64
2018-09-09T03:05:59.085Z,89.72
2018-09-09T03:06:59.177Z,89.80
2018-09-09T03:07:59.203Z,89.80
2018-09-09T03:08:59.209Z,89.94
2018-09-09T03:09:59.136Z,90.05
2018-09-09T03:10:59.187Z,90.07
2018-09-09T03:11:59.136Z,90.02
2018-09-09T03:12:59.188Z,89.99
2018-09-09T03:13:59.138Z,89.99
2018-09-09T03:14:59.189Z,89.88
2018-09-09T03:15:59.143Z,89.80
2018-09-09T03:16:59.212Z,89.56
2018-09-09T03:17:59.175Z,89.27
2018-09-09T03:18:59.245Z,89.08
2018-09-09T03:19:59.173Z,88.87
2018-09-09T03:20:59.252Z,88.62
2018-09-09T03:21:59.185Z,88.23
2018-09-09T03:22:59.247Z,88.07
2018-09-09T03:23:59.249Z,88.07
2018-09-09T03:24:59.186Z,87.96
2018-09-09T03:25:59.252Z,88.01
2018-09-09T03:26:59.128Z,87.88
2018-09-09T03:27:59.201Z,87.85
2018-09-09T03:28:59.253Z,87.93
2018-09-09T03:29:59.258Z,88.07
2018-09-09T03:30:59.263Z,88.07
2018-09-09T03:31:59.214Z,88.23
2018-09-09T03:32:59.189Z,88.41
2018-09-09T03:33:59.256Z,88.46
2018-09-09T03:34:59.150Z,88.54
2018-09-09T03:35:59.261Z,88.62
2018-09-09T03:36:59.265Z,88.68
2018-09-09T03:37:59.192Z,88.79
2018-09-09T03:38:59.185Z,88.89
2018-09-09T03:39:59.189Z,89.03
2018-09-09T03:40:59.186Z,89.06
2018-09-09T03:41:59.187Z,89.06
2018-09-09T03:42:59.185Z,89.14
2018-09-09T03:43:59.189Z,89.24
2018-09-09T03:44:59.187Z,89.45
2018-09-09T03:45:59.263Z,89.62
2018-09-09T03:46:59.194Z,89.86
2018-09-09T03:47:59.193Z,89.97
2018-09-09T03:48:59.266Z,90.05
2018-09-09T03:49:59.267Z,90.18
2018-09-09T03:50:59.306Z,90.15
2018-09-09T03:51:59.194Z,90.05
2018-09-09T03:52:59.192Z,90.13
2018-09-09T03:53:59.274Z,90.15
2018-09-09T03:54:59.233Z,90.20
2018-09-09T03:55:59.197Z,90.23
2018-09-09T03:56:59.273Z,90.28
2018-09-09T03:57:59.201Z,90.28
2018-09-09T03:58:59.203Z,90.18
2018-09-09T03:59:59.199Z,90.18
2018-09-09T04:00:59.275Z,90.42
2018-09-09T04:01:59.205Z,90.66
2018-09-09T04:02:59.276Z,90.69
2018-09-09T04:03:59.278Z,90.69
2018-09-09T04:04:59.276Z,90.71
2018-09-09T04:05:59.273Z,90.77
2018-09-09T04:06:59.282Z,90.82
2018-09-09T04:07:59.176Z,90.71
2018-09-09T04:08:59.193Z,90.71
2018-09-09T04:09:59.294Z,90.71
2018-09-09T04:10:59.175Z,90.71
2018-09-09T04:11:59.183Z,90.69
2018-09-09T04:12:59.144Z,90.55
2018-09-09T04:13:59.252Z,90.47
2018-09-09T04:14:59.169Z,90.42
2018-09-09T04:15:59.250Z,90.34
2018-09-09T04:16:59.193Z,90.31
2018-09-09T04:17:59.288Z,90.18
2018-09-09T04:18:59.373Z,90.15
2018-09-09T04:19:59.223Z,89.97
2018-09-09T04:20:59.222Z,89.80
2018-09-09T04:21:59.294Z,89.62
2018-09-09T04:22:59.225Z,89.62
2018-09-09T04:23:59.224Z,89.59
2018-09-09T04:24:59.185Z,89.62
2018-09-09T04:25:59.224Z,89.51
2018-09-09T04:26:59.297Z,89.51
2018-09-09T04:27:59.223Z,89.40
2018-09-09T04:28:59.239Z,89.48
2018-09-09T04:29:59.298Z,89.48
2018-09-09T04:30:59.388Z,89.43
2018-09-09T04:31:59.296Z,89.32
2018-09-09T04:32:59.299Z,89.40
2018-09-09T04:33:59.229Z,89.54
2018-09-09T04:34:59.298Z,89.70
2018-09-09T04:35:59.252Z,89.72
2018-09-09T04:36:59.302Z,89.72
2018-09-09T04:37:59.230Z,89.75
2018-09-09T04:38:59.181Z,89.80
2018-09-09T04:39:59.182Z,89.83
2018-09-09T04:40:59.235Z,89.78
2018-09-09T04:41:59.289Z,89.75
2018-09-09T04:42:59.273Z,89.67
2018-09-09T04:43:59.201Z,89.72
2018-09-09T04:44:59.275Z,89.91
2018-09-09T04:45:59.210Z,89.97
2018-09-09T04:46:59.169Z,89.97
2018-09-09T04:47:59.264Z,89.83
2018-09-09T04:48:59.218Z,89.70
2018-09-09T04:49:59.358Z,89.59
2018-09-09T04:50:59.199Z,89.59
2018-09-09T04:51:59.193Z,89.48
2018-09-09T04:52:59.274Z,89.27
2018-09-09T04:53:59.199Z,89.19
2018-09-09T04:54:59.195Z,89.06
2018-09-09T04:55:59.255Z,88.92
2018-09-09T04:56:59.273Z,88.84
2018-09-09T04:57:59.274Z,88.65
2018-09-09T04:58:59.273Z,88.60
2018-09-09T04:59:59.180Z,88.23
2018-09-09T05:00:59.185Z,88.04
2018-09-09T05:01:59.245Z,87.77
2018-09-09T05:02:59.190Z,87.80
2018-09-09T05:03:59.170Z,87.67
2018-09-09T05:04:59.283Z,87.45
2018-09-09T05:05:59.273Z,87.43
2018-09-09T05:06:59.208Z,87.24
2018-09-09T05:07:59.277Z,86.89
2018-09-09T05:08:59.252Z,86.52
2018-09-09T05:09:59.250Z,86.30
2018-09-09T05:10:59.344Z,86.22
2018-09-09T05:11:59.249Z,85.88
2018-09-09T05:12:59.258Z,85.77
2018-09-09T05:13:59.328Z,85.64
2018-09-09T05:14:59.331Z,85.61
2018-09-09T05:15:59.350Z,85.38
2018-09-09T05:16:59.257Z,85.32
2018-09-09T05:17:59.333Z,85.27
2018-09-09T05:18:59.278Z,84.81
2018-09-09T05:19:59.321Z,84.74
2018-09-09T05:20:59.321Z,84.66
2018-09-09T05:21:59.231Z,84.52
2018-09-09T05:22:59.258Z,84.74
2018-09-09T05:23:59.259Z,84.81
2018-09-09T05:24:59.213Z,84.66
2018-09-09T05:25:59.331Z,84.52
2018-09-09T05:26:59.300Z,84.28
2018-09-09T05:27:59.257Z,84.31
2018-09-09T05:28:59.268Z,84.34
2018-09-09T05:29:59.261Z,84.47
2018-09-09T05:30:59.341Z,84.44
2018-09-09T05:31:59.263Z,84.58
2018-09-09T05:32:59.339Z,84.44
2018-09-09T05:33:59.356Z,84.44
2018-09-09T05:34:59.266Z,84.44
2018-09-09T05:35:59.267Z,84.44
2018-09-09T05:36:59.346Z,84.31
2018-09-09T05:37:59.265Z,84.17
2018-09-09T05:38:59.340Z,84.23
2018-09-09T05:39:59.340Z,84.09
2018-09-09T05:40:59.312Z,84.20
2018-09-09T05:41:59.222Z,84.28
2018-09-09T05:42:59.381Z,84.28
2018-09-09T05:43:59.219Z,84.42
2018-09-09T05:44:59.243Z,84.34
2018-09-09T05:45:59.259Z,84.17
2018-09-09T05:46:59.343Z,83.86
2018-09-09T05:47:59.291Z,83.83
2018-09-09T05:48:59.202Z,83.46
2018-09-09T05:49:59.309Z,83.49
2018-09-09T05:50:59.312Z,83.20
2018-09-09T05:51:59.298Z,83.12
2018-09-09T05:52:59.209Z,83.09
2018-09-09T05:53:59.377Z,82.82
2018-09-09T05:54:59.221Z,82.77
2018-09-09T05:55:59.218Z,82.93
2018-09-09T05:56:59.311Z,82.75
2018-09-09T05:57:59.305Z,82.67
2018-09-09T05:58:59.297Z,82.61
2018-09-09T05:59:59.231Z,82.77
2018-09-09T06:00:59.230Z,82.96
2018-09-09T06:01:59.300Z,82.75
2018-09-09T06:02:59.376Z,82.75
2018-09-09T06:03:59.255Z,82.72
2018-09-09T06:04:59.241Z,82.56
2018-09-09T06:05:59.326Z,82.75
2018-09-09T06:06:59.303Z,82.77
2018-09-09T06:07:59.266Z,83.22
2018-09-09T06:08:59.359Z,83.40
2018-09-09T06:09:59.347Z,83.33
2018-09-09T06:10:59.309Z,83.20
2018-09-09T06:11:59.314Z,83.33
2018-09-09T06:12:59.537Z,83.51
2018-09-09T06:13:59.367Z,83.78
2018-09-09T06:14:59.317Z,84.26
2018-09-09T06:15:59.360Z,83.94
2018-09-09T06:16:59.291Z,83.78
2018-09-09T06:17:59.335Z,84.17
2018-09-09T06:18:59.373Z,84.17
2018-09-09T06:19:59.295Z,83.22
2018-09-09T06:20:59.408Z,83.36
2018-09-09T06:21:59.372Z,83.30
2018-09-09T06:22:59.296Z,83.01
2018-09-09T06:23:59.380Z,82.75
2018-09-09T06:24:59.304Z,82.85
2018-09-09T06:25:59.375Z,82.85
2018-09-09T06:26:59.308Z,82.72
2018-09-09T06:27:59.303Z,82.59
2018-09-09T06:28:59.316Z,82.72
2018-09-09T06:29:59.275Z,82.67
2018-09-09T06:30:59.251Z,82.61
2018-09-09T06:31:59.234Z,81.52
2018-09-09T06:32:59.343Z,81.08
2018-09-09T06:33:59.434Z,80.73
2018-09-09T06:34:59.313Z,80.15
2018-09-09T06:35:59.258Z,79.99
2018-09-09T06:36:59.349Z,79.39
2018-09-09T06:37:59.296Z,79.57
2018-09-09T06:38:59.432Z,80.02
2018-09-09T06:39:59.312Z,79.86
2018-09-09T06:40:59.389Z,78.41
2018-09-09T06:41:59.313Z,77.47
2018-09-09T06:42:59.351Z,76.54
2018-09-09T06:43:59.314Z,75.68
2018-09-09T06:44:59.418Z,75.49
2018-09-09T06:45:59.393Z,75.52
2018-09-09T06:46:59.316Z,75.31
2018-09-09T06:47:59.390Z,74.66
2018-09-09T06:48:59.319Z,75.02
2018-09-09T06:49:59.324Z,75.29
2018-09-09T06:50:59.398Z,74.99
2018-09-09T06:51:59.316Z,75.55
2018-09-09T06:52:59.397Z,73.82
2018-09-09T06:53:59.319Z,74.08
2018-09-09T06:54:59.361Z,74.26
2018-09-09T06:55:59.352Z,74.55
2018-09-09T06:56:59.325Z,74.34
2018-09-09T06:57:59.400Z,74.68
2018-09-09T06:58:59.360Z,74.05
2018-09-09T06:59:59.246Z,73.63
2018-09-09T07:00:59.343Z,73.06
2018-09-09T07:01:59.268Z,72.77
2018-09-09T07:02:59.306Z,72.83
2018-09-09T07:03:59.252Z,72.41
2018-09-09T07:04:59.342Z,72.41
2018-09-09T07:05:59.291Z,71.75
2018-09-09T07:06:59.363Z,70.43
2018-09-09T07:07:59.438Z,70.64
2018-09-09T07:08:59.389Z,70.76
2018-09-09T07:09:59.397Z,71.05
2018-09-09T07:10:59.433Z,70.76
2018-09-09T07:11:59.543Z,70.66
2018-09-09T07:12:59.318Z,71.13
2018-09-09T07:13:59.410Z,70.74
2018-09-09T07:14:59.286Z,70.92
2018-09-09T07:15:59.412Z,70.35
2018-09-09T07:16:59.391Z,70.53
2018-09-09T07:17:59.319Z,70.53
2018-09-09T07:18:59.359Z,71.54
2018-09-09T07:19:59.415Z,70.87
2018-09-09T07:20:59.339Z,72.20
2018-09-09T07:21:59.341Z,72.04
2018-09-09T07:22:59.423Z,71.15
2018-09-09T07:23:59.416Z,70.92
2018-09-09T07:24:59.370Z,70.97
2018-09-09T07:25:59.425Z,70.79
2018-09-09T07:26:59.348Z,70.17
2018-09-09T07:27:59.425Z,70.11
2018-09-09T07:28:59.343Z,71.21
2018-09-09T07:29:59.278Z,70.09
2018-09-09T07:30:59.403Z,70.43
2018-09-09T07:31:59.379Z,70.68
2018-09-09T07:32:59.380Z,70.11
2018-09-09T07:33:59.378Z,70.19
2018-09-09T07:34:59.275Z,70.14
2018-09-09T07:35:59.330Z,70.14
2018-09-09T07:36:59.366Z,70.04
2018-09-09T07:37:59.331Z,70.66
2018-09-09T07:38:59.401Z,69.90
2018-09-09T07:39:59.323Z,69.98
2018-09-09T07:40:59.322Z,70.82
2018-09-09T07:41:59.424Z,70.32
2018-09-09T07:42:59.427Z,69.20
2018-09-09T07:43:59.356Z,68.53
2018-09-09T07:44:59.306Z,68.89
2018-09-09T07:45:59.429Z,68.50
2018-09-09T07:46:59.354Z,68.08
2018-09-09T07:47:59.435Z,67.64
2018-09-09T07:48:59.355Z,67.46
2018-09-09T07:49:59.311Z,67.20
2018-09-09T07:50:59.403Z,67.28
2018-09-09T07:51:59.314Z,66.48
2018-09-09T07:52:59.435Z,65.91
2018-09-09T07:53:59.430Z,66.81
2018-09-09T07:54:59.428Z,65.50
2018-09-09T07:55:59.422Z,65.55
2018-09-09T07:56:59.435Z,65.58
2018-09-09T07:57:59.425Z,65.91
2018-09-09T07:58:59.332Z,65.14
2018-09-09T07:59:59.294Z,65.96
2018-09-09T08:00:59.272Z,65.78
2018-09-09T08:01:59.334Z,66.27
2018-09-09T08:02:59.383Z,66.74
2018-09-09T08:03:59.271Z,67.46
2018-09-09T08:04:59.295Z,67.02
2018-09-09T08:05:59.391Z,66.87
2018-09-09T08:06:59.387Z,66.66
2018-09-09T08:07:59.387Z,66.97
2018-09-09T08:08:59.398Z,66.20
2018-09-09T08:09:59.429Z,66.17
2018-09-09T08:10:59.306Z,65.68
2018-09-09T08:11:59.327Z,67.44
2018-09-09T08:12:59.379Z,64.46
2018-09-09T08:13:59.378Z,64.23
2018-09-09T08:14:59.406Z,64.88
2018-09-09T08:15:59.380Z,63.33
2018-09-09T08:16:59.437Z,64.52
2018-09-09T08:17:59.358Z,64.02
2018-09-09T08:18:59.384Z,62.56
2018-09-09T08:19:59.363Z,62.02
2018-09-09T08:20:59.313Z,62.92
2018-09-09T08:21:59.395Z,62.27
2018-09-09T08:22:59.368Z,62.58
2018-09-09T08:23:59.282Z,62.33
2018-09-09T08:24:59.398Z,61.38
2018-09-09T08:25:59.479Z,62.30
2018-09-09T08:26:59.400Z,61.46
2018-09-09T08:27:59.398Z,60.27
2018-09-09T08:28:59.467Z,60.30
2018-09-09T08:29:59.389Z,59.63
2018-09-09T08:30:59.466Z,60.55
2018-09-09T08:31:59.391Z,61.04
2018-09-09T08:32:59.390Z,61.14
2018-09-09T08:33:59.467Z,58.59
2018-09-09T08:34:59.469Z,58.89
2018-09-09T08:35:59.398Z,59.07
2018-09-09T08:36:59.470Z,58.89
2018-09-09T08:37:59.395Z,58.35
2018-09-09T08:38:59.372Z,59.73
2018-09-09T08:39:59.372Z,58.35
2018-09-09T08:40:59.430Z,58.46
2018-09-09T08:41:59.434Z,59.20
2018-09-09T08:42:59.427Z,56.67
2018-09-09T08:43:59.421Z,55.85
2018-09-09T08:44:59.436Z,57.92
2018-09-09T08:45:59.327Z,56.41
2018-09-09T08:46:59.359Z,56.08
2018-09-09T08:47:59.404Z,55.83
2018-09-09T08:48:59.406Z,55.06
2018-09-09T08:49:59.478Z,54.56
2018-09-09T08:50:59.480Z,54.63
2018-09-09T08:51:59.546Z,55.06
2018-09-09T08:52:59.488Z,56.33
2018-09-09T08:53:59.414Z,57.61
2018-09-09T08:54:59.481Z,54.33
2018-09-09T08:55:59.408Z,54.37
2018-09-09T08:56:59.484Z,53.42
2018-09-09T08:57:59.507Z,52.15
2018-09-09T08:58:59.486Z,51.69
2018-09-09T08:59:59.488Z,50.18
2018-09-09T09:00:59.485Z,50.40
2018-09-09T09:01:59.487Z,49.44
2018-09-09T09:02:59.492Z,49.72
2018-09-09T09:03:59.411Z,49.32
2018-09-09T09:04:59.510Z,48.97
2018-09-09T09:05:59.428Z,50.22
2018-09-09T09:06:59.501Z,50.78
2018-09-09T09:07:59.615Z,50.60
2018-09-09T09:08:59.488Z,51.49
2018-09-09T09:09:59.435Z,52.15
2018-09-09T09:10:59.370Z,50.07
2018-09-09T09:11:59.423Z,51.08
2018-09-09T09:12:59.532Z,48.66
2018-09-09T09:13:59.495Z,49.87
2018-09-09T09:14:59.425Z,49.02
2018-09-09T09:15:59.497Z,47.36
2018-09-09T09:16:59.422Z,47.26
2018-09-09T09:17:59.501Z,47.86
2018-09-09T09:18:59.426Z,47.68
2018-09-09T09:19:59.422Z,45.00
2018-09-09T09:20:59.501Z,44.70
2018-09-09T09:21:59.426Z,45.70
2018-09-09T09:22:59.427Z,45.52
2018-09-09T09:23:59.501Z,47.86
2018-09-09T09:24:59.427Z,49.04
2018-09-09T09:25:59.505Z,46.58
2018-09-09T09:26:59.504Z,45.77
2018-09-09T09:27:59.504Z,47.73
2018-09-09T09:28:59.494Z,48.94
2018-09-09T09:29:59.410Z,45.98
2018-09-09T09:30:59.506Z,46.07
2018-09-09T09:31:59.381Z,46.25
2018-09-09T09:32:59.500Z,46.68
2018-09-09T09:33:59.473Z,46.23
2018-09-09T09:34:59.507Z,46.68
2018-09-09T09:35:59.477Z,45.70
2018-09-09T09:36:59.410Z,47.31
2018-09-09T09:37:59.480Z,47.93
2018-09-09T09:38:59.514Z,48.61
2018-09-09T09:39:59.438Z,48.28
2018-09-09T09:40:59.515Z,48.77
2018-09-09T09:41:59.447Z,48.16
2018-09-09T09:42:59.516Z,48.31
2018-09-09T09:43:59.442Z,48.48
2018-09-09T09:44:59.517Z,48.64
2018-09-09T09:45:59.477Z,49.39
2018-09-09T09:46:59.448Z,50.71
2018-09-09T09:47:59.410Z,49.67
2018-09-09T09:48:59.446Z,49.55
2018-09-09T09:49:59.450Z,51.06
2018-09-09T09:50:59.521Z,49.06
2018-09-09T09:51:59.446Z,52.27
2018-09-09T09:52:59.521Z,47.61
2018-09-09T09:53:59.448Z,46.50
2018-09-09T09:54:59.582Z,46.18
2018-09-09T09:55:59.452Z,47.86
2018-09-09T09:56:59.526Z,45.20
2018-09-09T09:57:59.531Z,42.62
2018-09-09T09:58:59.457Z,42.25
2018-09-09T09:59:59.527Z,42.58
2018-09-09T10:00:59.459Z,44.17
2018-09-09T10:01:59.451Z,42.00
2018-09-09T10:02:59.533Z,42.72
2018-09-09T10:04:59.529Z,45.60
2018-09-09T10:05:59.539Z,43.20
2018-09-09T10:06:59.465Z,42.15
2018-09-09T10:07:59.461Z,42.80
2018-09-09T10:08:59.518Z,43.47
2018-09-09T10:09:59.536Z,42.10
2018-09-09T10:10:59.518Z,42.33
2018-09-09T10:11:59.460Z,43.45
2018-09-09T10:12:59.522Z,43.02
2018-09-09T10:13:59.410Z,43.72
2018-09-09T10:14:59.445Z,44.07
2018-09-09T10:15:59.413Z,43.80
2018-09-09T10:16:59.505Z,43.33
2018-09-09T10:17:59.527Z,41.58
2018-09-09T10:18:59.529Z,42.92
2018-09-09T10:19:59.531Z,42.33
2018-09-09T10:20:59.508Z,42.10
2018-09-09T10:21:59.447Z,43.17
2018-09-09T10:22:59.542Z,43.00
2018-09-09T10:23:59.516Z,43.42
2018-09-09T10:24:59.532Z,42.80
2018-09-09T10:25:59.424Z,43.47
2018-09-09T10:26:59.491Z,43.82
2018-09-09T10:27:59.468Z,41.50
2018-09-09T10:28:59.564Z,42.12
2018-09-09T10:29:59.553Z,42.30
2018-09-09T10:30:59.473Z,40.98
2018-09-09T10:31:59.449Z,40.71
2018-09-09T10:32:59.542Z,42.18
2018-09-09T10:33:59.549Z,41.70
2018-09-09T10:34:59.545Z,42.95
2018-09-09T10:35:59.427Z,42.03
2018-09-09T10:36:59.542Z,42.70
2018-09-09T10:37:59.495Z,43.10
2018-09-09T10:38:59.484Z,43.10
2018-09-09T10:39:59.562Z,42.10
2018-09-09T10:40:59.511Z,41.82
2018-09-09T10:41:59.567Z,42.20
2018-09-09T10:43:59.559Z,40.78
2018-09-09T10:44:59.562Z,41.01
2018-09-09T10:45:59.552Z,40.85
2018-09-09T10:46:59.618Z,40.63
2018-09-09T10:47:59.492Z,41.01
2018-09-09T10:48:59.482Z,43.30
2018-09-09T10:49:59.501Z,41.35
2018-09-09T10:50:59.492Z,40.93
2018-09-09T10:51:59.564Z,42.55
2018-09-09T10:52:59.496Z,40.34
2018-09-09T10:53:59.570Z,40.06
2018-09-09T10:54:59.495Z,39.89
2018-09-09T10:55:59.500Z,41.61
2018-09-09T10:56:59.572Z,40.46
2018-09-09T10:57:59.494Z,39.07
2018-09-09T10:58:59.435Z,40.46
2018-09-09T10:59:59.517Z,40.21
2018-09-09T11:00:59.438Z,40.16
2018-09-09T11:01:59.551Z,39.44
2018-09-09T11:02:59.532Z,39.64
2018-09-09T11:03:59.449Z,40.43
2018-09-09T11:04:59.480Z,40.98
2018-09-09T11:05:59.555Z,41.35
2018-09-09T11:06:59.631Z,40.63
2018-09-09T11:07:59.430Z,40.93
2018-09-09T11:08:59.527Z,41.73
2018-09-09T11:09:59.579Z,41.06
2018-09-09T11:10:59.505Z,41.35
2018-09-09T11:11:59.578Z,41.80
2018-09-09T11:12:59.572Z,41.13
2018-09-09T11:13:59.730Z,42.35
2018-09-09T11:14:59.505Z,41.88
2018-09-09T11:15:59.578Z,43.47
2018-09-09T11:16:59.507Z,41.48
2018-09-09T11:17:59.507Z,41.21
2018-09-09T11:18:59.603Z,40.85
2018-09-09T11:19:59.412Z,40.73
2018-09-09T11:20:59.528Z,41.06
2018-09-09T11:21:59.526Z,39.76
2018-09-09T11:22:59.480Z,42.85
2018-09-09T11:23:59.489Z,39.27
2018-09-09T11:24:59.475Z,38.87
2018-09-09T11:25:59.476Z,39.37
2018-09-09T11:26:59.529Z,39.37
2018-09-09T11:27:59.534Z,40.61
2018-09-09T11:28:59.531Z,39.79
2018-09-09T11:29:59.604Z,40.54
2018-09-09T11:30:59.596Z,39.74
2018-09-09T11:31:59.519Z,39.32
2018-09-09T11:32:59.592Z,39.59
2018-09-09T11:33:59.519Z,38.55
2018-09-09T11:34:59.601Z,38.94
2018-09-09T11:35:59.523Z,40.51
2018-09-09T11:36:59.592Z,39.29
2018-09-09T11:37:59.524Z,38.45
2018-09-09T11:38:59.623Z,38.85
2018-09-09T11:39:59.563Z,39.05
2018-09-09T11:40:59.568Z,39.49
2018-09-09T11:41:59.561Z,39.29
2018-09-09T11:42:59.478Z,39.64
2018-09-09T11:43:59.542Z,39.52
2018-09-09T11:44:59.597Z,39.96
2018-09-09T11:45:59.480Z,40.06
2018-09-09T11:46:59.564Z,40.26
2018-09-09T11:47:59.566Z,40.41
2018-09-09T11:48:59.548Z,40.21
2018-09-09T11:49:59.529Z,39.82
2018-09-09T11:50:59.469Z,40.56
2018-09-09T11:51:59.629Z,40.24
2018-09-09T11:52:59.595Z,41.58
2018-09-09T11:53:59.566Z,41.03
2018-09-09T11:54:59.533Z,41.06
2018-09-09T11:55:59.570Z,41.18
2018-09-09T11:56:59.569Z,40.34
2018-09-09T11:57:59.571Z,40.48
2018-09-09T11:58:59.539Z,41.70
2018-09-09T11:59:59.614Z,40.24
2018-09-09T12:00:59.537Z,40.71
2018-09-09T12:01:59.609Z,39.62
2018-09-09T12:02:59.542Z,40.31
2018-09-09T12:03:59.546Z,41.13
2018-09-09T12:04:59.618Z,40.81
2018-09-09T12:05:59.541Z,39.69
2018-09-09T12:06:59.543Z,39.22
2018-09-09T12:07:59.622Z,40.41
2018-09-09T12:08:59.542Z,40.73
2018-09-09T12:09:59.570Z,39.89
2018-09-09T12:10:59.567Z,39.89
2018-09-09T12:11:59.570Z,39.66
2018-09-09T12:12:59.469Z,39.62
2018-09-09T12:13:59.512Z,39.37
2018-09-09T12:14:59.453Z,39.74
2018-09-09T12:15:59.476Z,39.29
2018-09-09T12:16:59.565Z,39.24
2018-09-09T12:17:59.511Z,41.88
2018-09-09T12:18:59.475Z,40.21
2018-09-09T12:19:59.509Z,39.87
2018-09-09T12:20:59.531Z,39.82
2018-09-09T12:21:59.487Z,39.82
2018-09-09T12:22:59.542Z,40.19
2018-09-09T12:23:59.587Z,39.47
2018-09-09T12:24:59.656Z,40.26
2018-09-09T12:25:59.586Z,40.93
2018-09-09T12:26:59.497Z,39.79
2018-09-09T12:27:59.584Z,40.73
2018-09-09T12:28:59.561Z,40.09
2018-09-09T12:29:59.511Z,40.26
2018-09-09T12:30:59.629Z,40.41
2018-09-09T12:31:59.532Z,39.05
2018-09-09T12:32:59.635Z,38.87
2018-09-09T12:33:59.601Z,40.85
2018-09-09T12:34:59.509Z,40.59
2018-09-09T12:35:59.518Z,39.42
2018-09-09T12:36:59.635Z,39.54
2018-09-09T12:37:59.500Z,39.82
2018-09-09T12:38:59.625Z,37.78
2018-09-09T12:39:59.566Z,37.71
2018-09-09T12:40:59.640Z,38.23
2018-09-09T12:41:59.604Z,37.96
2018-09-09T12:42:59.643Z,38.43
2018-09-09T12:43:59.569Z,37.71
2018-09-09T12:44:59.572Z,38.00
2018-09-09T12:45:59.571Z,38.18
2018-09-09T12:46:59.646Z,38.45
2018-09-09T12:47:59.573Z,38.43
2018-09-09T12:48:59.648Z,37.39
2018-09-09T12:49:59.647Z,37.68
2018-09-09T12:50:59.597Z,36.72
2018-09-09T12:51:59.646Z,37.86
2018-09-09T12:52:59.575Z,37.06
2018-09-09T12:53:59.652Z,38.05
2018-09-09T12:54:59.574Z,38.80